Time;durP1;ratioP1;P1;durP2;ratioP2;P2;SDS_P1;SDS_P2;PMS_P1;PMS_P2;Temp;Humidity;BMP_temperature;BMP_pressure;BME280_temperature;BME280_humidity;BME280_pressure;Samples;Min_cycle;Max_cycle;Signal;HPM_P1;HPM_P2
2021/04/03 00:00:56;;;;;;;83.50;42.33;;;;;;;0.65;74.89;98809.16;1712363;83;21167;-61
2021/04/03 00:03:25;;;;;;;52.48;26.45;;;;;;;0.69;74.84;98812.03;1712445;83;21131;-62
2021/04/03 00:05:53;;;;;;;56.15;27.40;;;;;;;0.62;75.06;98822.32;1713159;83;21163;-62
2021/04/03 00:08:24;;;;;;;52.08;25.92;;;;;;;0.59;75.13;98812.03;1704408;83;21560;-62
2021/04/03 00:11:00;;;;;;;49.55;24.55;;;;;;;0.65;75.07;98807.42;1705356;83;21195;-62
2021/04/03 00:13:32;;;;;;;54.75;24.67;;;;;;;0.57;75.34;98815.17;1705766;83;21168;-62
2021/04/03 00:16:03;;;;;;;45.85;23.67;;;;;;;0.48;76.04;98810.75;1689274;85;21158;-62
2021/04/03 00:18:30;;;;;;;48.08;22.50;;;;;;;0.47;76.38;98811.69;1696861;83;21147;-62
2021/04/03 00:20:58;;;;;;;48.10;22.80;;;;;;;0.53;76.29;98807.13;1689823;83;21123;-62
2021/04/03 00:23:25;;;;;;;48.80;23.10;;;;;;;0.48;76.60;98822.45;1694110;83;21187;-61
2021/04/03 00:25:52;;;;;;;50.92;22.95;;;;;;;0.52;76.65;98808.03;1715395;83;21135;-62
2021/04/03 00:28:20;;;;;;;51.10;25.08;;;;;;;0.47;76.69;98809.09;1708097;83;21163;-62
2021/04/03 00:30:48;;;;;;;52.43;24.45;;;;;;;0.49;76.58;98804.64;1693391;83;21187;-61
2021/04/03 00:33:15;;;;;;;52.30;24.65;;;;;;;0.51;76.52;98808.47;1713053;83;21199;-61
2021/04/03 00:35:46;;;;;;;52.10;26.85;;;;;;;0.59;76.33;98813.33;1708805;84;22256;-61
2021/04/03 00:38:15;;;;;;;39.00;20.77;;;;;;;0.72;75.96;98805.84;1705985;83;21227;-61
2021/04/03 00:40:46;;;;;;;42.45;20.12;;;;;;;0.70;76.23;98811.09;1680031;85;21711;-62
2021/04/03 00:43:20;;;;;;;49.83;22.60;;;;;;;0.61;76.46;98805.84;1682815;84;21175;-64
2021/04/03 00:45:47;;;;;;;54.80;25.97;;;;;;;0.57;76.54;98804.77;1709076;84;21171;-62
2021/04/03 00:48:16;;;;;;;47.90;23.87;;;;;;;0.72;76.27;98813.19;1693197;84;21147;-62
2021/04/03 00:50:48;;;;;;;50.88;23.98;;;;;;;0.79;76.09;98808.54;1699002;84;21194;-64
2021/04/03 00:53:27;;;;;;;48.65;23.67;;;;;;;0.78;76.20;98815.95;1699288;84;21274;-62
2021/04/03 00:56:03;;;;;;;47.67;23.73;;;;;;;0.74;76.04;98823.08;1705187;84;21327;-62
2021/04/03 00:58:30;;;;;;;43.20;23.73;;;;;;;0.68;75.92;98812.94;1682678;83;21180;-62
2021/04/03 01:00:58;;;;;;;39.92;20.17;;;;;;;0.72;75.69;98816.26;1667018;86;21199;-61
2021/04/03 01:03:27;;;;;;;45.73;22.82;;;;;;;0.66;75.72;98809.55;1681839;84;21112;-62
2021/04/03 01:05:57;;;;;;;45.43;23.80;;;;;;;0.64;75.70;98814.00;1683255;84;21270;-62
2021/04/03 01:08:25;;;;;;;41.73;20.97;;;;;;;0.60;75.71;98819.80;1689308;84;21147;-61
2021/04/03 01:10:54;;;;;;;37.83;19.37;;;;;;;0.62;75.73;98822.32;1693640;82;21214;-61
2021/04/03 01:13:57;;;;;;;39.45;20.90;;;;;;;0.69;75.44;98826.34;1681421;85;21195;-61
2021/04/03 01:16:42;;;;;;;49.77;25.35;;;;;;;0.56;75.76;98819.98;1638522;86;21128;-61
2021/04/03 01:19:31;;;;;;;45.12;24.02;;;;;;;0.39;76.21;98818.13;1638721;86;21196;-63
2021/04/03 01:22:44;;;;;;;42.23;21.95;;;;;;;0.36;76.21;98817.81;1680922;84;21315;-63
2021/04/03 01:25:37;;;;;;;41.13;21.25;;;;;;;0.36;76.16;98817.81;1708996;84;21537;-62
2021/04/03 01:28:10;;;;;;;40.17;20.68;;;;;;;0.42;76.58;98820.15;1684488;84;21604;-61
2021/04/03 01:30:38;;;;;;;32.30;18.37;;;;;;;0.55;76.11;98816.98;1708802;84;21305;-62
2021/04/03 01:33:09;;;;;;;35.85;19.17;;;;;;;0.44;76.27;98815.70;1711120;83;21203;-61
2021/04/03 01:35:49;;;;;;;43.33;19.23;;;;;;;0.33;76.57;98817.92;1718067;83;21707;-62
2021/04/03 01:38:37;;;;;;;39.20;18.67;;;;;;;0.27;76.84;98818.19;1632152;87;21198;-61
2021/04/03 01:41:06;;;;;;;38.05;20.52;;;;;;;0.25;76.97;98814.83;1669925;86;21163;-62
2021/04/03 01:43:46;;;;;;;37.80;20.92;;;;;;;0.23;77.02;98820.53;1681214;85;21148;-62
2021/04/03 01:46:15;;;;;;;49.35;23.32;;;;;;;0.22;77.01;98818.84;1681694;84;21184;-63
2021/04/03 01:48:43;;;;;;;33.25;18.12;;;;;;;0.21;76.96;98822.38;1687422;84;22170;-63
2021/04/03 01:51:11;;;;;;;38.63;20.12;;;;;;;0.20;76.85;98803.31;1681734;85;21207;-63
2021/04/03 01:53:39;;;;;;;36.98;18.35;;;;;;;0.23;77.06;98814.90;1706045;84;21199;-63
2021/04/03 01:56:10;;;;;;;40.95;20.17;;;;;;;0.37;76.73;98823.41;1703818;84;21292;-63
2021/04/03 01:58:41;;;;;;;37.73;20.30;;;;;;;0.34;76.61;98814.89;1713962;83;21176;-63
2021/04/03 02:01:10;;;;;;;44.85;21.90;;;;;;;0.23;76.93;98811.43;1688854;85;21182;-63
2021/04/03 02:03:39;;;;;;;46.50;23.42;;;;;;;0.20;77.28;98818.08;1689683;83;21206;-63
2021/04/03 02:06:09;;;;;;;44.40;23.52;;;;;;;0.28;77.27;98807.74;1697165;83;21297;-63
2021/04/03 02:08:39;;;;;;;48.80;23.67;;;;;;;0.47;76.70;98805.63;1687967;85;21187;-63
2021/04/03 02:11:20;;;;;;;41.20;21.45;;;;;;;0.51;76.62;98795.45;1800136;79;23083;-62
2021/04/03 02:13:49;;;;;;;40.15;21.68;;;;;;;0.45;76.89;98800.96;1769533;80;21914;-62
2021/04/03 02:16:18;;;;;;;50.92;23.30;;;;;;;0.41;76.94;98788.54;1779916;80;21697;-63
2021/04/03 02:18:45;;;;;;;47.23;23.32;;;;;;;0.47;76.79;98790.88;1769357;80;21173;-63
2021/04/03 02:21:13;;;;;;;44.18;21.30;;;;;;;0.64;76.24;98791.88;1752029;82;21145;-63
2021/04/03 02:23:44;;;;;;;40.20;19.77;;;;;;;0.59;76.09;98792.08;1752052;82;21142;-64
2021/04/03 02:26:12;;;;;;;45.03;22.32;;;;;;;0.47;76.14;98785.67;1781691;80;21292;-64
2021/04/03 02:28:40;;;;;;;38.05;19.45;;;;;;;0.40;76.23;98792.52;1752373;82;21558;-64
2021/04/03 02:31:08;;;;;;;35.80;18.00;;;;;;;0.38;76.11;98788.66;1758161;80;21125;-63
2021/04/03 02:33:37;;;;;;;32.45;16.77;;;;;;;0.28;76.16;98806.88;1781951;80;21161;-63
2021/04/03 02:36:05;;;;;;;36.28;19.20;;;;;;;0.23;76.08;98795.39;1757400;80;21160;-63
2021/04/03 02:38:33;;;;;;;39.60;18.87;;;;;;;0.14;76.15;98797.93;1780270;80;21154;-62
2021/04/03 02:41:06;;;;;;;30.00;15.23;;;;;;;0.14;76.21;98798.36;1752900;80;21149;-63
2021/04/03 02:44:11;;;;;;;34.67;18.45;;;;;;;0.08;76.33;98791.69;1752429;81;21118;-63
2021/04/03 02:46:50;;;;;;;35.25;16.85;;;;;;;0.09;76.29;98800.32;1752254;82;21141;-62
2021/04/03 02:49:31;;;;;;;30.95;15.83;;;;;;;0.05;76.21;98795.73;1758910;80;21667;-63
2021/04/03 02:52:02;;;;;;;34.10;16.07;;;;;;;0.08;75.91;98804.69;1769792;80;21295;-63
2021/04/03 02:54:29;;;;;;;28.40;15.13;;;;;;;0.02;76.18;98793.71;1783168;80;21196;-63
2021/04/03 02:56:58;;;;;;;34.60;17.50;;;;;;;0.06;76.33;98800.46;1760797;80;21142;-64
2021/04/03 02:59:34;;;;;;;27.13;14.63;;;;;;;0.02;76.44;98804.94;1760438;80;21150;-63
2021/04/03 03:02:01;;;;;;;31.15;16.85;;;;;;;0.05;76.44;98810.47;1783188;80;21170;-63
2021/04/03 03:04:29;;;;;;;28.57;15.83;;;;;;;0.02;76.59;98804.94;1776897;80;21153;-63
2021/04/03 03:06:58;;;;;;;29.45;15.48;;;;;;;0.14;76.34;98803.13;1752094;81;21331;-63
2021/04/03 03:09:26;;;;;;;34.73;17.77;;;;;;;0.20;76.26;98801.17;1753800;80;21594;-62
2021/04/03 03:11:57;;;;;;;34.03;16.95;;;;;;;0.34;75.99;98797.52;1760561;81;21195;-62
2021/04/03 03:14:26;;;;;;;35.28;17.45;;;;;;;0.36;75.91;98802.20;1768556;80;21129;-62
2021/04/03 03:16:54;;;;;;;38.98;19.05;;;;;;;0.44;75.63;98808.38;1791159;80;21102;-63
2021/04/03 03:19:23;;;;;;;46.80;21.93;;;;;;;0.47;75.58;98802.58;1789189;80;21441;-62
2021/04/03 03:21:51;;;;;;;42.15;19.65;;;;;;;0.51;75.37;98799.36;1766582;80;21149;-62
2021/04/03 03:24:19;;;;;;;42.80;18.73;;;;;;;0.51;75.24;98806.34;1790516;80;21141;-62
2021/04/03 03:26:48;;;;;;;39.00;17.32;;;;;;;0.53;75.07;98796.25;1785323;80;21250;-64
2021/04/03 03:29:15;;;;;;;34.83;18.32;;;;;;;0.46;74.93;98799.59;1773062;80;21208;-63
2021/04/03 03:31:43;;;;;;;42.98;18.17;;;;;;;0.43;74.82;98811.41;1776717;80;21892;-63
2021/04/03 03:34:12;;;;;;;33.88;17.62;;;;;;;0.39;75.00;98811.16;1761613;80;21316;-63
2021/04/03 03:36:42;;;;;;;30.80;15.88;;;;;;;0.40;75.04;98799.84;1759591;80;21121;-62
2021/04/03 03:39:10;;;;;;;32.85;17.48;;;;;;;0.39;74.92;98794.25;1765631;80;21121;-63
2021/04/03 03:41:37;;;;;;;30.77;15.65;;;;;;;0.36;75.05;98802.64;1763455;80;21136;-63
2021/04/03 03:44:07;;;;;;;35.45;17.35;;;;;;;0.35;74.98;98792.70;1772713;80;21198;-64
2021/04/03 03:49:02;;;;;;;28.15;14.63;;;;;;;0.38;74.90;98793.03;1805400;79;22366;-62
2021/04/03 03:51:31;;;;;;;33.33;16.32;;;;;;;0.26;75.02;98795.72;1785149;80;21273;-61
2021/04/03 03:54:00;;;;;;;27.15;16.17;;;;;;;0.24;75.33;98798.83;1781649;80;21084;-63
2021/04/03 03:56:29;;;;;;;35.90;17.37;;;;;;;0.22;75.48;98790.23;1729377;83;21218;-63
2021/04/03 03:58:57;;;;;;;36.55;18.80;;;;;;;0.26;75.61;98793.12;1725369;83;21139;-63
2021/04/03 04:01:25;;;;;;;32.67;15.53;;;;;;;0.40;75.38;98784.71;1731421;81;21174;-63
2021/04/03 04:03:52;;;;;;;31.65;18.40;;;;;;;0.45;75.65;98799.19;1737975;81;21563;-63
2021/04/03 04:06:20;;;;;;;36.03;20.37;;;;;;;0.47;76.03;98797.81;1730856;83;21595;-63
2021/04/03 04:08:50;;;;;;;37.05;19.82;;;;;;;0.56;76.12;98802.60;1758062;81;21147;-64
2021/04/03 04:11:19;;;;;;;35.05;18.23;;;;;;;0.81;76.13;98795.84;1732149;81;21166;-63
2021/04/03 04:13:49;;;;;;;39.20;21.60;;;;;;;1.43;75.51;98798.64;1732151;81;21321;-63
2021/04/03 04:16:18;;;;;;;40.38;21.17;;;;;;;1.85;74.85;98796.63;1734930;81;21623;-62
2021/04/03 04:18:49;;;;;;;40.58;22.62;;;;;;;2.10;74.32;98801.45;1752440;81;21674;-63
2021/04/03 04:21:18;;;;;;;40.25;22.95;;;;;;;2.34;73.79;98809.80;1713674;83;21269;-63
2021/04/03 04:23:46;;;;;;;40.45;21.93;;;;;;;2.43;72.95;98811.05;1700064;83;21172;-63
2021/04/03 04:26:14;;;;;;;48.05;27.50;;;;;;;2.45;72.78;98801.39;1719647;83;21172;-63
2021/04/03 04:28:43;;;;;;;57.43;31.40;;;;;;;2.56;72.30;98802.16;1719610;83;21198;-63
2021/04/03 04:31:12;;;;;;;45.75;26.73;;;;;;;2.76;71.45;98805.85;1710539;83;21277;-63
2021/04/03 04:33:43;;;;;;;40.35;22.17;;;;;;;2.77;70.89;98804.90;1754290;80;21155;-63
2021/04/03 04:36:11;;;;;;;34.43;18.73;;;;;;;2.66;70.77;98807.27;1727661;83;21312;-63
2021/04/03 04:38:39;;;;;;;34.80;17.02;;;;;;;2.53;70.85;98799.69;1711358;83;21155;-63
2021/04/03 04:41:09;;;;;;;34.60;17.00;;;;;;;2.49;70.59;98809.44;1727803;81;21123;-63
2021/04/03 04:43:37;;;;;;;24.60;14.07;;;;;;;2.66;70.78;98802.05;1730206;81;21154;-63
2021/04/03 04:46:04;;;;;;;28.10;14.45;;;;;;;2.91;70.17;98808.08;1720695;83;21290;-63
2021/04/03 04:48:36;;;;;;;20.92;11.78;;;;;;;3.08;69.33;98800.66;1722918;82;21123;-63
2021/04/03 04:51:05;;;;;;;25.17;13.88;;;;;;;3.30;69.00;98803.39;1719653;83;21265;-63
2021/04/03 04:53:34;;;;;;;22.02;10.93;;;;;;;3.59;68.30;98803.06;1719143;83;21179;-63
2021/04/03 04:56:03;;;;;;;27.42;14.35;;;;;;;3.74;67.72;98806.55;1720427;83;21195;-64
2021/04/03 04:58:32;;;;;;;23.07;11.65;;;;;;;3.75;67.05;98808.25;1718473;83;21273;-64
2021/04/03 05:01:01;;;;;;;13.43;7.92;;;;;;;3.84;66.96;98803.44;1711220;83;21561;-64
2021/04/03 05:03:43;;;;;;;12.93;7.12;;;;;;;4.01;65.99;98815.52;1774377;79;22998;-63
2021/04/03 05:06:11;;;;;;;14.38;7.17;;;;;;;4.24;66.10;98811.55;1729084;82;21599;-62
2021/04/03 05:08:38;;;;;;;11.25;6.65;;;;;;;4.70;65.19;98815.80;1746579;82;21251;-62
2021/04/03 05:11:05;;;;;;;10.23;6.30;;;;;;;4.97;63.27;98813.72;1749121;81;21136;-63
2021/04/03 05:13:33;;;;;;;11.12;6.08;;;;;;;4.89;62.24;98824.68;1739322;81;21779;-63
2021/04/03 05:16:01;;;;;;;11.68;7.28;;;;;;;4.92;62.87;98819.23;1738055;82;21135;-65
2021/04/03 05:18:29;;;;;;;10.93;6.30;;;;;;;5.24;62.01;98810.69;1745532;81;21166;-64
2021/04/03 05:20:58;;;;;;;12.07;6.10;;;;;;;5.56;60.34;98806.92;1664456;85;21103;-63
2021/04/03 05:23:25;;;;;;;13.98;6.42;;;;;;;5.76;59.52;98811.36;1690185;84;21319;-63
2021/04/03 05:25:52;;;;;;;9.25;5.97;;;;;;;5.98;59.10;98798.52;1689023;84;21143;-64
2021/04/03 05:28:19;;;;;;;12.33;6.67;;;;;;;6.20;57.27;98795.77;1704881;84;21675;-63
2021/04/03 05:30:47;;;;;;;9.55;6.33;;;;;;;6.32;57.04;98796.25;1700010;84;21244;-63
2021/04/03 05:33:14;;;;;;;10.15;6.33;;;;;;;6.37;56.38;98792.02;1697084;84;21654;-63
2021/04/03 05:35:42;;;;;;;11.73;7.40;;;;;;;6.43;56.47;98794.67;1695538;84;21178;-62
2021/04/03 05:38:09;;;;;;;10.48;7.12;;;;;;;6.52;57.10;98788.33;1682716;84;21178;-62
2021/04/03 05:40:37;;;;;;;11.33;6.92;;;;;;;6.68;56.60;98792.03;1688030;84;21794;-63
2021/04/03 05:43:04;;;;;;;14.10;7.47;;;;;;;6.84;55.72;98789.64;1706975;84;21143;-63
2021/04/03 05:45:36;;;;;;;16.20;8.15;;;;;;;6.99;56.75;98799.56;1691296;84;21201;-63
2021/04/03 05:48:05;;;;;;;11.68;7.37;;;;;;;7.24;55.93;98803.06;1682331;84;21147;-64
2021/04/03 05:50:35;;;;;;;15.03;8.20;;;;;;;7.31;55.11;98811.71;1682976;85;21345;-64
2021/04/03 05:53:03;;;;;;;16.87;9.83;;;;;;;7.28;55.70;98802.73;1693880;83;21177;-64
2021/04/03 05:55:31;;;;;;;16.45;8.85;;;;;;;7.28;55.94;98806.69;1678772;84;21685;-65
2021/04/03 05:57:58;;;;;;;18.55;10.30;;;;;;;7.20;56.04;98815.12;1690521;84;21280;-65
2021/04/03 06:00:25;;;;;;;18.40;10.50;;;;;;;7.10;56.58;98806.67;1699459;84;21206;-65
2021/04/03 06:02:53;;;;;;;15.35;10.38;;;;;;;7.22;56.57;98812.37;1698689;84;21190;-66
2021/04/03 06:05:21;;;;;;;14.65;9.95;;;;;;;7.27;57.21;98812.89;1678157;84;21223;-64
2021/04/03 06:07:48;;;;;;;15.25;9.85;;;;;;;7.48;56.86;98825.44;1718609;82;21583;-65
2021/04/03 06:10:16;;;;;;;14.03;9.15;;;;;;;7.67;56.51;98823.17;1710001;83;21330;-65
2021/04/03 06:12:49;;;;;;;15.13;10.18;;;;;;;7.66;55.38;98821.48;1649951;86;21297;-65
2021/04/03 06:15:33;;;;;;;17.85;11.70;;;;;;;7.64;54.98;98821.23;1715352;82;21140;-63
2021/04/03 06:18:07;;;;;;;16.75;10.78;;;;;;;7.56;53.99;98816.53;1730723;82;21175;-64
2021/04/03 06:20:41;;;;;;;15.78;10.45;;;;;;;7.43;53.92;98823.16;1737063;82;21136;-64
2021/04/03 06:23:10;;;;;;;21.55;11.48;;;;;;;7.35;54.50;98821.55;1739143;82;21188;-63
2021/04/03 06:25:56;;;;;;;16.67;10.50;;;;;;;7.43;55.90;98817.90;1733751;82;21321;-65
2021/04/03 06:28:29;;;;;;;15.03;9.98;;;;;;;7.59;55.42;98824.67;1709632;84;21135;-64
2021/04/03 06:31:02;;;;;;;15.70;9.60;;;;;;;7.64;55.45;98825.18;1657245;85;21728;-65
2021/04/03 06:33:29;;;;;;;17.00;10.40;;;;;;;7.73;54.06;98826.30;1649640;86;21187;-64
2021/04/03 06:36:17;;;;;;;12.40;8.30;;;;;;;7.85;54.03;98830.64;1709829;84;21187;-64
2021/04/03 06:38:46;;;;;;;13.48;8.03;;;;;;;7.94;53.25;98843.16;1713342;82;21124;-64
2021/04/03 06:41:23;;;;;;;12.80;7.80;;;;;;;7.91;53.96;98843.84;1663929;86;21647;-63
2021/04/03 06:44:11;;;;;;;15.72;8.63;;;;;;;7.91;54.28;98847.80;1717072;82;21711;-63
2021/04/03 06:46:42;;;;;;;18.55;12.82;;;;;;;7.92;52.60;98854.26;1726428;82;21283;-63
2021/04/03 06:49:09;;;;;;;26.12;16.02;;;;;;;7.87;53.42;98851.13;1737927;82;21223;-63
2021/04/03 06:51:38;;;;;;;11.75;8.33;;;;;;;7.88;52.61;98854.12;1718769;82;21151;-64
2021/04/03 06:54:07;;;;;;;13.60;8.63;;;;;;;8.00;54.29;98856.33;1725767;82;21171;-64
2021/04/03 06:56:35;;;;;;;13.88;8.00;;;;;;;8.15;52.16;98858.30;1644877;86;21301;-64
2021/04/03 06:59:08;;;;;;;15.00;9.40;;;;;;;8.24;53.16;98864.19;1733828;82;21560;-65
2021/04/03 07:01:49;;;;;;;15.97;8.70;;;;;;;8.44;53.45;98865.80;1724592;82;21635;-65
2021/04/03 07:04:32;;;;;;;12.95;8.20;;;;;;;8.66;53.30;98868.52;1727970;82;21167;-65
2021/04/03 07:06:59;;;;;;;13.15;8.13;;;;;;;8.81;52.95;98880.15;1735894;82;21623;-66
2021/04/03 07:09:26;;;;;;;11.10;6.78;;;;;;;8.86;52.83;98872.72;1723863;82;21148;-66
2021/04/03 07:11:55;;;;;;;12.35;8.03;;;;;;;8.91;52.69;98877.16;1722570;82;21164;-65
2021/04/03 07:14:25;;;;;;;13.45;8.35;;;;;;;9.10;52.90;98878.38;1718936;82;21120;-65
2021/04/03 07:16:52;;;;;;;13.65;7.22;;;;;;;9.19;52.42;98880.28;1726306;82;21797;-65
2021/04/03 07:19:21;;;;;;;10.58;6.35;;;;;;;9.32;52.71;98878.84;1726050;82;21747;-65
2021/04/03 07:21:49;;;;;;;15.05;7.10;;;;;;;9.38;52.33;98881.00;1721631;82;21794;-64
2021/04/03 07:24:17;;;;;;;10.98;6.35;;;;;;;9.52;52.71;98887.81;1726210;82;21299;-64
2021/04/03 07:26:47;;;;;;;10.25;6.12;;;;;;;9.63;50.12;98885.16;1725193;82;21148;-64
2021/04/03 07:29:47;;;;;;;10.53;6.03;;;;;;;9.58;49.30;98891.76;1720237;82;21139;-65
2021/04/03 07:32:42;;;;;;;10.30;5.97;;;;;;;9.49;49.65;98902.59;1716913;82;22109;-64
2021/04/03 07:35:22;;;;;;;11.70;6.95;;;;;;;9.30;49.18;98892.66;1721753;82;21135;-64
2021/04/03 07:37:50;;;;;;;10.40;5.75;;;;;;;9.13;49.52;98905.83;1730872;82;21132;-63
2021/04/03 07:40:30;;;;;;;10.40;5.95;;;;;;;9.10;51.02;98902.12;1731085;82;21181;-63
2021/04/03 07:42:57;;;;;;;9.68;6.17;;;;;;;9.22;50.83;98910.41;1728741;82;21282;-63
2021/04/03 07:45:44;;;;;;;10.72;6.87;;;;;;;9.30;49.95;98897.93;1733592;82;21143;-64
2021/04/03 07:48:24;;;;;;;11.45;6.53;;;;;;;9.34;49.44;98905.47;1723319;82;21171;-64
2021/04/03 07:50:49;;;;;;;9.38;5.30;;;;;;;9.38;50.25;98899.96;1721567;82;21619;-63
2021/04/03 07:53:35;;;;;;;9.05;5.70;;;;;;;9.45;49.76;98901.99;1722947;82;21342;-64
2021/04/03 07:56:04;;;;;;;7.78;4.97;;;;;;;9.51;49.19;98902.83;1717878;82;21309;-64
2021/04/03 07:58:37;;;;;;;7.65;4.87;;;;;;;9.60;49.36;98910.47;1711471;82;21168;-64
2021/04/03 08:01:06;;;;;;;8.83;5.83;;;;;;;9.66;48.39;98909.98;1724549;82;21144;-64
2021/04/03 08:03:35;;;;;;;7.62;4.10;;;;;;;9.62;46.67;98914.33;1709639;82;21126;-64
2021/04/03 08:06:08;;;;;;;6.78;3.72;;;;;;;9.51;46.64;98919.13;1691074;84;21257;-64
2021/04/03 08:08:41;;;;;;;10.05;6.00;;;;;;;9.46;46.56;98926.57;1707709;83;21292;-64
2021/04/03 08:11:14;;;;;;;9.38;5.00;;;;;;;9.43;46.16;98928.14;1696770;84;21195;-65
2021/04/03 08:13:45;;;;;;;7.50;4.50;;;;;;;9.52;46.12;98930.05;1716747;83;21126;-63
2021/04/03 08:16:14;;;;;;;6.78;4.20;;;;;;;9.66;45.63;98925.83;1712258;83;21157;-63
2021/04/03 08:18:45;;;;;;;7.05;4.65;;;;;;;9.64;44.74;98917.67;1700802;84;21206;-63
2021/04/03 08:21:12;;;;;;;7.83;4.70;;;;;;;9.60;43.58;98920.20;1709338;83;21166;-64
2021/04/03 08:23:44;;;;;;;8.93;4.78;;;;;;;9.50;43.85;98918.30;1695057;84;21139;-64
2021/04/03 08:26:12;;;;;;;5.90;3.95;;;;;;;9.41;43.23;98907.62;1710354;83;21150;-65
2021/04/03 08:28:39;;;;;;;6.70;3.98;;;;;;;9.41;43.97;98910.27;1716392;83;21653;-65
2021/04/03 08:31:23;;;;;;;6.87;4.40;;;;;;;9.44;43.86;98908.72;1728059;83;21467;-65
2021/04/03 08:33:53;;;;;;;7.25;4.37;;;;;;;9.50;45.51;98905.56;1700859;84;21320;-63
2021/04/03 08:36:25;;;;;;;8.28;3.75;;;;;;;9.65;44.85;98910.97;1716936;83;21177;-63
2021/04/03 08:38:54;;;;;;;6.28;3.87;;;;;;;9.69;43.40;98898.34;1703819;83;21268;-63
2021/04/03 08:41:25;;;;;;;8.33;4.12;;;;;;;9.77;44.99;98903.00;1703980;83;21216;-64
2021/04/03 08:43:54;;;;;;;7.03;4.17;;;;;;;9.95;43.97;98905.48;1699112;84;21123;-64
2021/04/03 08:46:22;;;;;;;7.20;4.08;;;;;;;10.04;43.69;98897.77;1705342;83;21308;-64
2021/04/03 08:48:58;;;;;;;7.20;3.75;;;;;;;10.05;43.14;98896.80;1723613;83;21173;-64
2021/04/03 08:51:26;;;;;;;14.75;8.55;;;;;;;10.12;42.91;98889.56;1709442;83;21224;-64
2021/04/03 08:53:55;;;;;;;13.50;8.60;;;;;;;10.15;42.77;98884.52;1720472;83;21312;-64
2021/04/03 08:56:36;;;;;;;5.03;3.27;;;;;;;10.19;43.83;98880.64;1713411;83;21782;-64
2021/04/03 08:59:10;;;;;;;6.00;3.17;;;;;;;10.39;44.06;98887.45;1710102;84;21118;-64
2021/04/03 09:01:43;;;;;;;6.37;3.52;;;;;;;10.55;42.80;98890.50;1716211;83;21350;-63
2021/04/03 09:04:11;;;;;;;5.75;3.10;;;;;;;10.62;42.58;98885.02;1699547;83;21289;-63
2021/04/03 09:06:54;;;;;;;5.35;3.05;;;;;;;10.77;40.98;98890.83;1744402;82;21135;-63
2021/04/03 09:09:24;;;;;;;4.87;2.65;;;;;;;10.77;40.66;98884.72;1752856;82;21183;-63
2021/04/03 09:12:09;;;;;;;3.92;2.12;;;;;;;10.79;40.48;98889.38;1736539;82;21163;-63
2021/04/03 09:14:40;;;;;;;3.65;2.25;;;;;;;10.77;37.36;98895.30;1732272;82;21178;-63
2021/04/03 09:17:22;;;;;;;7.08;2.45;;;;;;;10.67;38.62;98893.08;1723214;83;21659;-63
2021/04/03 09:19:49;;;;;;;4.97;2.67;;;;;;;10.59;38.39;98881.33;1735857;82;21143;-63
2021/04/03 09:22:20;;;;;;;4.30;2.40;;;;;;;10.43;38.71;98879.62;1707843;82;21416;-63
2021/04/03 09:24:59;;;;;;;3.45;2.22;;;;;;;10.38;38.27;98892.38;1750901;82;21297;-63
2021/04/03 09:27:26;;;;;;;5.30;2.17;;;;;;;10.41;38.62;98896.94;1746304;82;21130;-63
2021/04/03 09:30:07;;;;;;;3.83;2.33;;;;;;;10.44;38.51;98897.98;1672702;85;21204;-64
2021/04/03 09:32:43;;;;;;;2.92;2.00;;;;;;;10.52;40.44;98893.38;1730267;82;21131;-67
2021/04/03 09:35:14;;;;;;;5.15;2.27;;;;;;;10.69;37.69;98897.73;1745732;82;21127;-63
2021/04/03 09:37:41;;;;;;;4.83;2.20;;;;;;;10.72;37.82;98888.23;1739607;80;22046;-63
2021/04/03 09:40:09;;;;;;;2.87;1.82;;;;;;;10.87;38.23;98884.28;1731282;82;21151;-64
2021/04/03 09:42:37;;;;;;;3.40;2.00;;;;;;;11.04;36.95;98885.97;1733786;82;21273;-63
2021/04/03 09:45:05;;;;;;;5.65;2.00;;;;;;;11.12;35.53;98894.89;1731462;82;21288;-63
2021/04/03 09:47:33;;;;;;;2.70;1.60;;;;;;;11.19;36.16;98904.48;1730009;82;21174;-63
2021/04/03 09:50:01;;;;;;;3.15;1.90;;;;;;;11.33;34.28;98890.05;1729989;82;21163;-64
2021/04/03 09:52:28;;;;;;;2.55;1.70;;;;;;;11.34;32.40;98889.06;1707810;82;21547;-62
2021/04/03 09:54:55;;;;;;;2.65;1.65;;;;;;;11.26;32.67;98895.02;1738049;82;21159;-62
2021/04/03 09:57:22;;;;;;;2.45;1.50;;;;;;;11.17;32.76;98896.33;1743369;82;21571;-63
2021/04/03 09:59:49;;;;;;;2.25;1.60;;;;;;;11.07;30.17;98887.84;1682405;85;21169;-63
2021/04/03 10:02:17;;;;;;;3.08;1.72;;;;;;;10.93;31.55;98892.16;1703121;83;21520;-64
2021/04/03 10:04:44;;;;;;;2.90;1.50;;;;;;;10.94;33.02;98889.38;1735192;82;21607;-63
2021/04/03 10:07:11;;;;;;;3.15;1.57;;;;;;;11.00;31.42;98885.39;1744238;82;22366;-63
2021/04/03 10:09:38;;;;;;;23.27;16.32;;;;;;;10.98;33.07;98893.46;1737999;82;21167;-63
2021/04/03 10:12:06;;;;;;;29.18;4.65;;;;;;;11.02;32.20;98901.13;1747712;82;21210;-63
2021/04/03 10:14:34;;;;;;;2.10;1.60;;;;;;;11.00;32.59;98906.55;1727045;82;21746;-64
2021/04/03 10:17:04;;;;;;;3.95;1.87;;;;;;;10.86;31.41;98913.48;1736507;82;21166;-63
2021/04/03 10:19:31;;;;;;;2.45;1.82;;;;;;;10.73;33.76;98907.93;1722917;82;21170;-64
2021/04/03 10:21:58;;;;;;;5.33;2.47;;;;;;;10.71;34.07;98910.35;1736817;82;21175;-63
2021/04/03 10:24:26;;;;;;;2.80;1.92;;;;;;;10.73;34.88;98905.75;1735877;82;21159;-64
2021/04/03 10:26:53;;;;;;;6.00;2.00;;;;;;;10.86;35.80;98911.69;1735880;82;21159;-65
2021/04/03 10:29:20;;;;;;;3.20;1.90;;;;;;;11.02;35.37;98904.59;1743868;82;21682;-65
2021/04/03 10:31:47;;;;;;;2.72;2.02;;;;;;;11.05;34.61;98900.38;1700958;84;21198;-64
2021/04/03 10:34:14;;;;;;;3.62;2.40;;;;;;;11.02;34.90;98898.48;1741117;82;21131;-64
2021/04/03 10:36:43;;;;;;;3.95;2.10;;;;;;;11.02;36.04;98895.83;1724959;82;21595;-64
2021/04/03 10:39:10;;;;;;;5.00;2.45;;;;;;;11.12;35.73;98897.54;1743012;82;21135;-64
2021/04/03 10:41:38;;;;;;;3.35;2.10;;;;;;;11.26;36.11;98892.38;1750551;82;21139;-64
2021/04/03 10:44:06;;;;;;;4.20;2.45;;;;;;;11.38;33.71;98881.23;1749243;82;21564;-64
2021/04/03 10:46:33;;;;;;;4.65;2.00;;;;;;;11.31;35.01;98878.25;1685535;85;21168;-64
2021/04/03 10:49:00;;;;;;;2.75;1.92;;;;;;;11.39;36.47;98881.55;1726466;82;21167;-64
2021/04/03 10:51:27;;;;;;;3.00;1.82;;;;;;;11.42;34.74;98885.73;1743159;81;21313;-64
2021/04/03 10:53:54;;;;;;;3.15;2.02;;;;;;;11.41;33.84;98885.41;1733231;82;21154;-64
2021/04/03 10:56:22;;;;;;;2.90;1.47;;;;;;;11.43;33.72;98876.83;1736827;82;21305;-65
2021/04/03 10:58:49;;;;;;;3.00;1.80;;;;;;;11.37;32.76;98881.34;1738005;82;21297;-65
2021/04/03 11:01:16;;;;;;;2.37;1.70;;;;;;;11.21;31.97;98877.38;1726616;82;21490;-64
2021/04/03 11:03:43;;;;;;;2.90;1.90;;;;;;;11.05;31.92;98868.62;1728512;81;21627;-64
2021/04/03 11:06:11;;;;;;;2.47;1.70;;;;;;;11.14;30.92;98872.30;1729445;82;21211;-65
2021/04/03 11:08:39;;;;;;;2.55;1.70;;;;;;;11.12;31.52;98884.80;1736412;82;21325;-64
2021/04/03 11:11:08;;;;;;;3.33;1.75;;;;;;;11.07;31.54;98879.08;1738958;82;21172;-64
2021/04/03 11:13:37;;;;;;;5.25;2.00;;;;;;;10.67;32.43;98816.39;1716806;82;21123;-64
2021/04/03 11:16:06;;;;;;;3.02;1.87;;;;;;;11.20;33.17;98865.61;1714334;82;21176;-63
2021/04/03 11:18:34;;;;;;;1.70;1.60;;;;;;;11.42;31.52;98878.66;1722793;82;21200;-64
2021/04/03 11:23:45;;;;;;;3.52;1.95;;;;;;;11.38;32.07;98876.40;1763566;79;22692;-64
2021/04/03 11:26:12;;;;;;;2.35;1.60;;;;;;;11.26;33.20;98876.99;1743541;82;21272;-65
2021/04/03 11:28:39;;;;;;;2.15;1.60;;;;;;;11.17;31.62;98881.27;1737473;82;21170;-65
2021/04/03 11:31:07;;;;;;;2.80;1.82;;;;;;;11.03;31.50;98889.58;1738311;82;21304;-65
2021/04/03 11:33:34;;;;;;;4.85;2.05;;;;;;;11.01;33.37;98880.92;1739487;82;21170;-65
2021/04/03 11:36:02;;;;;;;2.92;1.60;;;;;;;11.04;33.81;98881.50;1732763;82;21150;-65
2021/04/03 11:38:30;;;;;;;3.22;1.87;;;;;;;11.11;32.58;98877.83;1737453;82;21151;-66
2021/04/03 11:40:58;;;;;;;3.65;2.10;;;;;;;11.11;33.17;98881.80;1722402;83;21552;-66
2021/04/03 11:43:25;;;;;;;3.87;1.82;;;;;;;11.09;33.21;98888.55;1721392;83;21163;-66
2021/04/03 11:45:52;;;;;;;3.58;1.77;;;;;;;11.03;31.41;98878.99;1721316;83;21325;-66
2021/04/03 11:48:19;;;;;;;6.92;2.00;;;;;;;11.01;31.47;98870.34;1746660;82;21221;-66
2021/04/03 11:50:47;;;;;;;2.72;1.80;;;;;;;11.04;30.67;98871.41;1740061;82;21599;-66